createdAt,value
2019-05-22T00:00:18.875Z,22.83
2019-05-22T00:02:52.207Z,22.78
2019-05-22T00:05:26.879Z,22.78
2019-05-22T00:08:02.312Z,22.78
2019-05-22T00:10:35.597Z,22.77
2019-05-22T00:13:09.413Z,22.76
2019-05-22T00:15:44.357Z,22.74
2019-05-22T00:18:17.978Z,22.76
2019-05-22T00:20:51.279Z,22.76
2019-05-22T00:23:24.616Z,22.73
2019-05-22T00:25:57.943Z,22.71
2019-05-22T00:28:31.626Z,22.70
2019-05-22T00:31:05.579Z,22.72
2019-05-22T00:33:38.985Z,22.68
2019-05-22T00:36:12.570Z,22.94
2019-05-22T00:38:45.727Z,22.80
2019-05-22T00:41:19.048Z,22.76
2019-05-22T00:43:52.376Z,22.75
2019-05-22T00:46:25.694Z,22.74
2019-05-22T00:48:59.131Z,22.70
2019-05-22T00:51:33.992Z,22.70
2019-05-22T00:54:07.316Z,22.69
2019-05-22T00:56:40.627Z,22.68
2019-05-22T00:59:15.534Z,22.65
2019-05-22T01:01:50.184Z,22.63
2019-05-22T01:04:23.546Z,22.63
2019-05-22T01:06:56.831Z,22.60
2019-05-22T01:09:30.170Z,22.57
2019-05-22T01:12:04.064Z,22.59
2019-05-22T01:14:42.996Z,22.61
2019-05-22T01:17:13.058Z,22.59
2019-05-22T01:19:46.522Z,22.55
2019-05-22T01:22:19.826Z,22.57
2019-05-22T01:24:53.160Z,22.57
2019-05-22T01:27:26.485Z,22.55
2019-05-22T01:30:01.172Z,22.57
2019-05-22T01:32:34.484Z,22.56
2019-05-22T01:35:08.121Z,22.53
2019-05-22T01:37:41.567Z,22.54
2019-05-22T01:40:19.356Z,22.54
2019-05-22T01:42:52.668Z,22.52
2019-05-22T01:45:26.008Z,22.52
2019-05-22T01:48:00.645Z,22.52
2019-05-22T01:50:41.409Z,22.50
2019-05-22T01:53:16.341Z,22.50
2019-05-22T01:55:49.851Z,22.77
2019-05-22T01:58:23.154Z,22.60
2019-05-22T02:00:58.573Z,22.56
2019-05-22T02:03:31.884Z,22.55
2019-05-22T02:06:06.104Z,22.52
2019-05-22T02:08:45.545Z,22.52
2019-05-22T02:11:19.694Z,22.44
2019-05-22T02:13:56.263Z,22.46
2019-05-22T02:16:29.584Z,22.43
2019-05-22T02:19:02.905Z,22.44
2019-05-22T02:21:36.300Z,22.43
2019-05-22T02:24:09.925Z,22.41
2019-05-22T02:26:43.269Z,22.43
2019-05-22T02:29:16.771Z,22.42
2019-05-22T02:31:50.264Z,22.44
2019-05-22T02:34:24.140Z,22.43
2019-05-22T02:36:57.482Z,22.41
2019-05-22T02:39:30.784Z,22.43
2019-05-22T02:42:10.073Z,22.42
2019-05-22T02:44:43.395Z,22.41
2019-05-22T02:47:20.521Z,22.39
2019-05-22T02:49:52.508Z,22.40
2019-05-22T02:52:25.845Z,22.39
2019-05-22T02:54:59.160Z,22.38
2019-05-22T02:57:32.505Z,22.38
2019-05-22T03:00:05.830Z,22.60
2019-05-22T03:02:45.739Z,22.47
2019-05-22T03:05:19.099Z,22.44
2019-05-22T03:07:52.595Z,22.55
2019-05-22T03:10:25.899Z,22.45
2019-05-22T03:12:59.252Z,22.43
2019-05-22T03:15:32.555Z,22.40
2019-05-22T03:18:06.158Z,22.38
2019-05-22T03:20:39.512Z,22.35
2019-05-22T03:23:31.343Z,22.34
2019-05-22T03:26:06.081Z,22.34
2019-05-22T03:28:39.397Z,22.35
2019-05-22T03:31:13.558Z,22.33
2019-05-22T03:33:47.596Z,22.32
2019-05-22T03:36:21.373Z,22.34
2019-05-22T03:38:55.095Z,22.38
2019-05-22T03:41:28.432Z,22.79
2019-05-22T03:44:01.713Z,22.75
2019-05-22T03:46:37.343Z,22.76
2019-05-22T03:49:28.311Z,22.81
2019-05-22T03:51:47.179Z,23.30
2019-05-22T03:54:20.494Z,23.28
2019-05-22T03:56:53.829Z,23.83
2019-05-22T03:59:27.136Z,23.71
2019-05-22T04:02:00.477Z,23.77
2019-05-22T04:04:37.353Z,23.83
2019-05-22T04:07:10.860Z,23.94
2019-05-22T04:09:44.150Z,24.00
2019-05-22T04:12:17.478Z,24.04
2019-05-22T04:14:50.805Z,24.10
2019-05-22T04:17:25.788Z,24.14
2019-05-22T04:19:59.168Z,24.17
2019-05-22T04:22:32.522Z,23.70
2019-05-22T04:25:05.927Z,24.22
2019-05-22T04:27:40.003Z,24.25
2019-05-22T04:30:13.387Z,24.26
2019-05-22T04:32:47.085Z,24.28
2019-05-22T04:35:20.432Z,24.28
2019-05-22T04:37:53.905Z,24.29
2019-05-22T04:40:33.317Z,24.28
2019-05-22T04:43:06.619Z,24.29
2019-05-22T04:45:39.959Z,24.26
2019-05-22T04:48:13.280Z,24.26
2019-05-22T04:50:46.903Z,24.29
2019-05-22T04:53:21.292Z,24.28
2019-05-22T04:55:54.623Z,24.22
2019-05-22T04:58:28.181Z,24.18
2019-05-22T05:01:03.197Z,24.20
2019-05-22T05:03:36.537Z,24.52
2019-05-22T05:06:10.148Z,24.28
2019-05-22T05:08:43.748Z,24.19
2019-05-22T05:11:18.142Z,24.54
2019-05-22T05:13:51.459Z,24.29
2019-05-22T05:16:24.615Z,24.17
2019-05-22T05:18:57.940Z,24.14
2019-05-22T05:21:31.325Z,24.10
2019-05-22T05:24:05.027Z,24.09
2019-05-22T05:26:38.923Z,24.13
2019-05-22T05:29:23.707Z,24.14
2019-05-22T05:31:57.227Z,24.09
2019-05-22T05:34:48.856Z,24.11
2019-05-22T05:37:22.378Z,24.25
2019-05-22T05:40:04.966Z,24.12
2019-05-22T05:42:38.324Z,24.34
2019-05-22T05:45:13.491Z,24.17
2019-05-22T05:47:47.341Z,24.07
2019-05-22T05:50:20.822Z,24.01
2019-05-22T05:52:55.610Z,24.03
2019-05-22T05:55:44.431Z,24.01
2019-05-22T05:58:25.227Z,23.96
2019-05-22T06:01:02.544Z,23.96
2019-05-22T06:03:37.976Z,23.90
2019-05-22T06:06:22.938Z,23.92
2019-05-22T06:09:00.595Z,23.95
2019-05-22T06:11:46.704Z,23.87
2019-05-22T06:14:27.194Z,23.91
2019-05-22T06:17:15.683Z,23.98
2019-05-22T06:19:52.549Z,24.00
2019-05-22T06:22:26.225Z,23.96
2019-05-22T06:24:59.580Z,24.11
2019-05-22T06:27:33.068Z,24.12
2019-05-22T06:30:06.397Z,24.12
2019-05-22T06:33:05.799Z,24.12
2019-05-22T06:35:39.261Z,24.12
2019-05-22T06:38:36.671Z,24.04
2019-05-22T06:41:09.982Z,24.14
2019-05-22T06:43:46.554Z,24.10
2019-05-22T06:46:42.068Z,24.12
2019-05-22T06:49:34.066Z,24.09
2019-05-22T06:52:08.477Z,24.04
2019-05-22T06:54:41.856Z,24.17
2019-05-22T06:57:15.390Z,24.14
2019-05-22T07:00:10.698Z,24.08
2019-05-22T07:02:24.838Z,23.98
2019-05-22T07:04:58.155Z,24.03
2019-05-22T07:07:31.503Z,24.01
2019-05-22T07:10:05.379Z,24.56
2019-05-22T07:12:38.713Z,24.31
2019-05-22T07:15:18.217Z,24.27
2019-05-22T07:17:51.655Z,24.35
2019-05-22T07:20:25.047Z,24.37
2019-05-22T07:22:58.448Z,24.68
2019-05-22T07:25:32.121Z,24.51
2019-05-22T07:28:07.023Z,24.49
2019-05-22T07:30:41.410Z,24.53
2019-05-22T07:33:15.896Z,24.56
2019-05-22T07:36:07.764Z,24.61
2019-05-22T07:38:24.426Z,24.60
2019-05-22T07:40:57.799Z,24.63
2019-05-22T07:43:31.195Z,24.68
2019-05-22T07:46:04.507Z,24.81
2019-05-22T07:48:37.922Z,25.06
2019-05-22T07:51:11.325Z,24.92
2019-05-22T07:53:44.966Z,24.92
2019-05-22T07:56:18.298Z,25.17
2019-05-22T07:58:52.477Z,25.05
2019-05-22T08:01:27.434Z,25.10
2019-05-22T08:04:01.563Z,25.02
2019-05-22T08:06:34.854Z,25.01
2019-05-22T08:09:08.741Z,25.01
2019-05-22T08:11:42.046Z,25.04
2019-05-22T08:14:15.545Z,25.08
2019-05-22T08:16:48.850Z,25.54
2019-05-22T08:19:22.591Z,25.35
2019-05-22T08:22:06.697Z,25.32
2019-05-22T08:24:32.027Z,25.67
2019-05-22T08:27:06.938Z,25.39
2019-05-22T08:29:40.259Z,25.31
2019-05-22T08:32:14.080Z,25.28
2019-05-22T08:34:49.380Z,25.27
2019-05-22T08:37:27.504Z,25.50
2019-05-22T08:40:00.982Z,25.37
2019-05-22T08:42:35.640Z,25.31
2019-05-22T08:45:09.527Z,25.31
2019-05-22T08:47:42.877Z,25.31
2019-05-22T08:50:16.955Z,25.33
2019-05-22T08:52:50.370Z,25.27
2019-05-22T08:55:23.669Z,25.30
2019-05-22T08:57:57.009Z,25.75
2019-05-22T09:00:30.478Z,25.44
2019-05-22T09:03:04.023Z,25.40
2019-05-22T09:05:37.341Z,25.27
2019-05-22T09:08:10.720Z,25.21
2019-05-22T09:10:44.041Z,25.62
2019-05-22T09:13:17.394Z,25.44
2019-05-22T09:15:50.695Z,25.34
2019-05-22T09:18:24.032Z,25.32
2019-05-22T09:20:58.917Z,25.22
2019-05-22T09:23:33.481Z,25.58
2019-05-22T09:26:06.784Z,25.33
2019-05-22T09:28:40.202Z,25.29
2019-05-22T09:31:13.548Z,25.16
2019-05-22T09:33:46.968Z,25.07
2019-05-22T09:36:21.847Z,25.08
2019-05-22T09:38:55.178Z,25.05
2019-05-22T09:41:28.543Z,24.96
2019-05-22T09:44:02.248Z,25.31
2019-05-22T09:46:35.685Z,25.02
2019-05-22T09:49:09.256Z,25.05
2019-05-22T09:51:42.619Z,24.93
2019-05-22T09:54:15.918Z,24.89
2019-05-22T09:56:49.273Z,25.01
2019-05-22T09:59:22.586Z,24.93
2019-05-22T10:01:55.941Z,24.86
2019-05-22T10:04:29.323Z,24.83
2019-05-22T10:07:02.658Z,24.89
2019-05-22T10:09:35.976Z,24.84
2019-05-22T10:12:09.334Z,24.84
2019-05-22T10:14:42.654Z,24.85
2019-05-22T10:17:16.361Z,25.05
2019-05-22T10:19:49.664Z,24.94
2019-05-22T10:22:23.482Z,24.94
2019-05-22T10:25:13.753Z,24.90
2019-05-22T10:27:31.817Z,24.82
2019-05-22T10:30:13.522Z,24.97
2019-05-22T10:32:47.298Z,24.84
2019-05-22T10:35:20.975Z,24.83
2019-05-22T10:37:54.347Z,24.90
2019-05-22T10:40:27.980Z,24.93
2019-05-22T10:43:01.330Z,24.89
2019-05-22T10:45:34.641Z,24.85
2019-05-22T10:48:07.963Z,24.83
2019-05-22T10:50:41.297Z,24.90
2019-05-22T10:53:30.720Z,24.89
2019-05-22T10:55:49.819Z,24.88
2019-05-22T10:58:23.138Z,24.92
2019-05-22T11:00:56.666Z,24.94
2019-05-22T11:03:31.835Z,25.04
2019-05-22T11:06:07.481Z,24.97
2019-05-22T11:08:40.426Z,24.94
2019-05-22T11:11:14.114Z,25.31
2019-05-22T11:14:00.605Z,25.09
2019-05-22T11:16:22.462Z,25.03
2019-05-22T11:18:55.860Z,24.94
2019-05-22T11:21:29.157Z,24.96
2019-05-22T11:24:03.990Z,25.18
2019-05-22T11:26:38.387Z,25.04
2019-05-22T11:29:11.746Z,24.94
2019-05-22T11:31:45.105Z,25.34
2019-05-22T11:34:18.452Z,25.11
2019-05-22T11:36:52.118Z,25.05
2019-05-22T11:39:38.463Z,25.04
2019-05-22T11:42:00.640Z,25.02
2019-05-22T11:44:34.115Z,25.31
2019-05-22T11:47:07.940Z,25.15
2019-05-22T11:49:41.285Z,25.11
2019-05-22T11:52:14.668Z,25.55
2019-05-22T11:54:48.207Z,25.33
2019-05-22T11:57:21.522Z,25.09
2019-05-22T11:59:54.850Z,25.15
2019-05-22T12:02:28.221Z,25.20
2019-05-22T12:05:01.602Z,25.16
2019-05-22T12:07:35.855Z,25.18
2019-05-22T12:10:09.551Z,25.12
2019-05-22T12:12:44.038Z,25.12
2019-05-22T12:15:18.504Z,25.09
2019-05-22T12:17:52.484Z,25.30
2019-05-22T12:20:25.828Z,25.12
2019-05-22T12:22:59.416Z,25.13
2019-05-22T12:25:32.730Z,25.51
2019-05-22T12:28:06.100Z,25.36
2019-05-22T12:30:39.726Z,25.32
2019-05-22T12:33:14.251Z,25.23
2019-05-22T12:35:48.550Z,25.23
2019-05-22T12:38:21.874Z,25.22
2019-05-22T12:40:55.220Z,25.31
2019-05-22T12:43:28.521Z,25.33
2019-05-22T12:46:02.154Z,25.71
2019-05-22T12:48:37.220Z,25.53
2019-05-22T12:51:10.674Z,25.42
2019-05-22T12:53:44.556Z,25.39
2019-05-22T12:56:17.833Z,25.34
2019-05-22T12:58:51.222Z,25.38
2019-05-22T13:01:24.731Z,25.40
2019-05-22T13:03:58.381Z,25.45
2019-05-22T13:06:32.430Z,25.53
2019-05-22T13:09:08.439Z,25.55
2019-05-22T13:11:41.796Z,25.76
2019-05-22T13:14:15.141Z,25.69
2019-05-22T13:16:49.346Z,25.76
2019-05-22T13:19:22.812Z,26.14
2019-05-22T13:21:56.141Z,25.99
2019-05-22T13:24:29.541Z,25.96
2019-05-22T13:27:02.865Z,25.99
2019-05-22T13:29:36.242Z,25.97
2019-05-22T13:32:09.654Z,26.06
2019-05-22T13:34:43.003Z,26.15
2019-05-22T13:37:16.313Z,26.20
2019-05-22T13:39:49.672Z,26.64
2019-05-22T13:42:22.979Z,26.56
2019-05-22T13:44:56.445Z,26.62
2019-05-22T13:47:29.825Z,26.67
2019-05-22T13:50:06.789Z,26.67
2019-05-22T13:52:40.117Z,26.82
2019-05-22T13:55:13.379Z,26.70
2019-05-22T13:57:47.410Z,26.65
2019-05-22T14:00:22.344Z,26.62
2019-05-22T14:02:55.759Z,26.62
2019-05-22T14:05:29.165Z,26.64
2019-05-22T14:08:02.966Z,26.66
2019-05-22T14:10:36.648Z,26.69
2019-05-22T14:13:09.988Z,27.05
2019-05-22T14:15:50.479Z,26.84
2019-05-22T14:18:18.383Z,26.77
2019-05-22T14:20:52.789Z,26.62
2019-05-22T14:23:26.151Z,26.53
2019-05-22T14:25:59.457Z,26.46
2019-05-22T14:28:32.818Z,26.40
2019-05-22T14:31:06.146Z,26.38
2019-05-22T14:33:40.778Z,26.31
2019-05-22T14:36:14.375Z,26.25
2019-05-22T14:38:47.820Z,26.22
2019-05-22T14:41:21.134Z,26.21
2019-05-22T14:43:54.454Z,26.19
2019-05-22T14:46:27.773Z,25.77
2019-05-22T14:49:01.148Z,26.14
2019-05-22T14:51:34.475Z,26.12
2019-05-22T14:54:08.105Z,26.10
2019-05-22T14:56:41.689Z,26.45
2019-05-22T14:59:15.658Z,26.22
2019-05-22T15:01:49.064Z,26.13
2019-05-22T15:04:22.704Z,26.01
2019-05-22T15:06:56.020Z,26.27
2019-05-22T15:09:29.375Z,26.27
2019-05-22T15:12:02.702Z,26.10
2019-05-22T15:14:36.064Z,26.01
2019-05-22T15:17:09.407Z,26.06
2019-05-22T15:19:42.758Z,25.92
2019-05-22T15:22:16.137Z,25.84
2019-05-22T15:24:49.582Z,26.13
2019-05-22T15:27:22.918Z,25.90
2019-05-22T15:29:56.513Z,25.86
2019-05-22T15:32:29.846Z,26.09
2019-05-22T15:35:03.845Z,25.90
2019-05-22T15:37:38.297Z,25.76
2019-05-22T15:40:11.640Z,25.73
2019-05-22T15:42:45.033Z,25.69
2019-05-22T15:45:20.543Z,25.85
2019-05-22T15:47:56.755Z,25.71
2019-05-22T15:50:30.227Z,25.68
2019-05-22T15:53:09.424Z,25.67
2019-05-22T15:55:42.601Z,25.65
2019-05-22T15:58:16.273Z,25.61
2019-05-22T16:00:49.630Z,25.90
2019-05-22T16:03:27.352Z,25.74
2019-05-22T16:06:00.775Z,25.67
2019-05-22T16:08:34.098Z,25.66
2019-05-22T16:11:07.484Z,25.66
2019-05-22T16:13:40.846Z,25.68
2019-05-22T16:16:14.766Z,25.67
2019-05-22T16:18:48.653Z,25.66
2019-05-22T16:21:22.267Z,25.65
2019-05-22T16:23:55.685Z,25.66
2019-05-22T16:26:29.008Z,25.65
2019-05-22T16:29:02.688Z,25.89
2019-05-22T16:31:36.012Z,25.71
2019-05-22T16:34:10.332Z,25.64
2019-05-22T16:36:43.638Z,25.61
2019-05-22T16:39:17.281Z,25.57
2019-05-22T16:41:50.619Z,25.58
2019-05-22T16:44:24.023Z,25.62
2019-05-22T16:46:57.156Z,25.60
2019-05-22T16:49:30.703Z,25.62
2019-05-22T16:52:04.235Z,25.68
2019-05-22T16:54:38.265Z,25.65
2019-05-22T16:57:11.982Z,25.36
2019-05-22T16:59:45.296Z,25.64
2019-05-22T17:02:18.998Z,25.71
2019-05-22T17:04:52.289Z,25.77
2019-05-22T17:07:28.037Z,25.87
2019-05-22T17:10:00.955Z,25.89
2019-05-22T17:12:34.300Z,25.92
2019-05-22T17:15:10.873Z,25.94
2019-05-22T17:17:44.399Z,26.24
2019-05-22T17:20:17.742Z,26.05
2019-05-22T17:22:51.096Z,26.02
2019-05-22T17:25:24.682Z,26.28
2019-05-22T17:27:58.079Z,26.11
2019-05-22T17:30:31.429Z,26.05
2019-05-22T17:33:05.620Z,25.98
2019-05-22T17:35:39.409Z,25.93
2019-05-22T17:38:12.872Z,25.90
2019-05-22T17:40:46.262Z,26.25
2019-05-22T17:43:19.835Z,26.06
2019-05-22T17:45:53.216Z,25.93
2019-05-22T17:48:26.617Z,25.91
2019-05-22T17:50:59.944Z,25.89
2019-05-22T17:53:33.376Z,25.86
2019-05-22T17:56:06.730Z,25.80
2019-05-22T17:58:40.030Z,25.78
2019-05-22T18:01:14.311Z,25.74
2019-05-22T18:03:47.723Z,25.71
2019-05-22T18:06:21.090Z,25.63
2019-05-22T18:08:54.473Z,25.82
2019-05-22T18:11:28.743Z,25.67
2019-05-22T18:14:02.507Z,25.60
2019-05-22T18:16:35.779Z,25.54
2019-05-22T18:19:09.101Z,25.46
2019-05-22T18:21:42.436Z,25.52
2019-05-22T18:24:15.597Z,25.45
2019-05-22T18:26:48.892Z,25.42
2019-05-22T18:29:22.264Z,25.42
2019-05-22T18:31:55.584Z,25.40
2019-05-22T18:34:28.930Z,25.35
2019-05-22T18:37:02.629Z,25.30
2019-05-22T18:39:35.959Z,25.20
2019-05-22T18:42:09.346Z,25.16
2019-05-22T18:44:42.747Z,25.20
2019-05-22T18:47:16.247Z,25.21
2019-05-22T18:49:49.601Z,25.22
2019-05-22T18:52:38.241Z,25.21
2019-05-22T18:54:57.976Z,25.17
2019-05-22T18:57:31.295Z,25.32
2019-05-22T19:00:06.173Z,25.20
2019-05-22T19:02:39.877Z,25.20
2019-05-22T19:05:13.246Z,25.20
2019-05-22T19:07:46.694Z,25.18
2019-05-22T19:10:19.995Z,25.17
2019-05-22T19:12:53.443Z,25.15
2019-05-22T19:15:26.747Z,25.12
2019-05-22T19:18:00.264Z,24.72
2019-05-22T19:20:33.586Z,25.38
2019-05-22T19:23:08.025Z,25.20
2019-05-22T19:25:41.406Z,25.33
2019-05-22T19:28:14.740Z,25.27
2019-05-22T19:30:48.134Z,25.21
2019-05-22T19:33:21.457Z,25.32
2019-05-22T19:35:54.792Z,25.23
2019-05-22T19:38:28.129Z,25.21
2019-05-22T19:41:01.444Z,25.25
2019-05-22T19:43:34.690Z,25.25
2019-05-22T19:46:07.998Z,25.19
2019-05-22T19:48:41.387Z,25.66
2019-05-22T19:51:16.401Z,25.35
2019-05-22T19:53:49.740Z,25.18
2019-05-22T19:56:24.030Z,25.28
2019-05-22T19:58:57.543Z,25.30
2019-05-22T20:01:30.845Z,25.23
2019-05-22T20:04:04.183Z,25.23
2019-05-22T20:06:38.507Z,25.21
2019-05-22T20:09:12.907Z,25.28
2019-05-22T20:11:46.316Z,25.20
2019-05-22T20:14:19.945Z,25.19
2019-05-22T20:16:53.280Z,25.12
2019-05-22T20:19:26.581Z,25.11
2019-05-22T20:22:00.704Z,25.06
2019-05-22T20:24:34.103Z,25.01
2019-05-22T20:27:09.839Z,24.97
2019-05-22T20:29:42.450Z,25.03
2019-05-22T20:32:15.797Z,24.99
2019-05-22T20:34:49.119Z,24.96
2019-05-22T20:37:22.676Z,24.90
2019-05-22T20:39:55.944Z,24.92
2019-05-22T20:42:29.308Z,24.86
2019-05-22T20:45:02.694Z,25.09
2019-05-22T20:47:36.763Z,24.96
2019-05-22T20:50:10.241Z,24.94
2019-05-22T20:52:44.851Z,24.87
2019-05-22T20:55:18.169Z,24.87
2019-05-22T20:57:51.576Z,24.82
2019-05-22T21:00:24.862Z,24.81
2019-05-22T21:03:01.535Z,24.80
2019-05-22T21:05:35.290Z,24.81
2019-05-22T21:08:10.817Z,24.79
2019-05-22T21:10:44.656Z,24.76
2019-05-22T21:13:19.727Z,25.03
2019-05-22T21:15:53.058Z,24.92
2019-05-22T21:18:27.260Z,24.88
2019-05-22T21:21:00.574Z,24.84
2019-05-22T21:23:34.336Z,24.77
2019-05-22T21:26:08.009Z,24.76
2019-05-22T21:28:41.393Z,24.74
2019-05-22T21:31:15.233Z,24.67
2019-05-22T21:33:48.566Z,24.66
2019-05-22T21:36:21.948Z,24.62
2019-05-22T21:38:56.304Z,24.70
2019-05-22T21:41:29.684Z,25.02
2019-05-22T21:44:02.939Z,24.87
2019-05-22T21:46:37.424Z,24.97
2019-05-22T21:49:10.713Z,24.82
2019-05-22T21:51:44.141Z,24.73
2019-05-22T21:54:17.454Z,24.89
2019-05-22T21:56:50.860Z,24.72
2019-05-22T21:59:24.140Z,24.61
2019-05-22T22:01:57.497Z,24.93
2019-05-22T22:04:30.885Z,24.79
2019-05-22T22:07:04.247Z,24.74
2019-05-22T22:09:37.916Z,24.72
2019-05-22T22:12:11.245Z,24.66
2019-05-22T22:14:44.838Z,24.59
2019-05-22T22:17:18.151Z,24.52
2019-05-22T22:19:51.445Z,24.52
2019-05-22T22:22:25.084Z,24.79
2019-05-22T22:24:58.387Z,24.59
2019-05-22T22:27:31.726Z,24.59
2019-05-22T22:30:09.253Z,24.52
2019-05-22T22:32:42.570Z,24.50
2019-05-22T22:35:15.975Z,24.45
2019-05-22T22:37:49.259Z,24.43
2019-05-22T22:40:23.113Z,24.40
2019-05-22T22:42:56.683Z,24.71
2019-05-22T22:45:30.300Z,24.52
2019-05-22T22:48:03.607Z,24.44
2019-05-22T22:50:37.818Z,24.43
2019-05-22T22:53:11.346Z,24.40
2019-05-22T22:55:44.677Z,24.37
2019-05-22T22:58:18.064Z,24.33
2019-05-22T23:00:51.397Z,24.36
2019-05-22T23:03:24.734Z,24.33
2019-05-22T23:05:59.168Z,24.32
2019-05-22T23:08:33.430Z,24.27
2019-05-22T23:11:06.985Z,24.25
2019-05-22T23:13:40.332Z,24.23
2019-05-22T23:16:13.643Z,24.31
2019-05-22T23:18:55.874Z,24.22
2019-05-22T23:21:28.313Z,24.20
2019-05-22T23:24:00.669Z,24.17
2019-05-22T23:26:35.321Z,24.13
2019-05-22T23:29:08.671Z,24.21
2019-05-22T23:31:41.989Z,24.14
2019-05-22T23:34:15.415Z,24.10
2019-05-22T23:36:48.876Z,24.08
2019-05-22T23:39:22.275Z,24.06
2019-05-22T23:41:56.399Z,24.06
2019-05-22T23:44:29.925Z,24.26
2019-05-22T23:47:03.222Z,24.11
2019-05-22T23:49:37.169Z,24.08
2019-05-22T23:52:10.584Z,24.06
2019-05-22T23:54:44.021Z,24.05
2019-05-22T23:57:17.513Z,24.03
2019-05-22T23:59:51.046Z,24.00
